EHAM

Amsterdam Schiphol Airport

Amsterdam, The Netherlands
METAR EHAM 162225Z 27008KT 9999 -RA FEW010 SCT045 05/04 Q1000 TEMPO 5000
Observed Flight Rules
Jan-16 @ 22:25 UTC (9 minutes ago) Visual Flight Rules
Wind Visibility Clouds Conditions
270° at 8 knots 10,000+ meters
  • Few at 1,000' AGL
  • Scattered at 4,500' AGL
  • Light Rain
Temperatures Readings
Current 5°C / 41°F
Dewpoint 4°C / 39°F
Humidity 93%
Altimeter 29.53" Hg
Pressure 999.92 hPa
Elevation 9
METAR EHAM 162225Z 27008KT 9999 -RA FEW010 SCT045 05/04 Q1000 TEMPO 5000
Observed Flight Rules
Jan-16 @ 22:25 UTC
(9 minutes ago)
VFR
Wind Visibility
270° at 8 knots 10,000+ meters
Clouds
  • Few at 1,000' AGL
  • Scattered at 4,500' AGL
Conditions
  • Light Rain
Temperature Dewpoint
5°C / 41°F 4°C / 39°F
Humidity Altimeter Pressure
93% 29.53" Hg 999.92 hPa